Time;durP1;ratioP1;P1;durP2;ratioP2;P2;SDS_P1;SDS_P2;PMS_P1;PMS_P2;Temp;Humidity;BMP_temperature;BMP_pressure;BME280_temperature;BME280_humidity;BME280_pressure;Samples;Min_cycle;Max_cycle;Signal;HPM_P1;HPM_P2
2022/07/03 00:01:36;;;;;;;8.25;1.35;;;;;;;16.15;100.00;98264.63;5099947;28;20059;-92
2022/07/03 00:04:02;;;;;;;7.53;1.50;;;;;;;16.11;100.00;98272.69;5096301;28;20063;-93
2022/07/03 00:06:30;;;;;;;7.07;1.40;;;;;;;15.90;100.00;98266.50;5086886;28;20039;-93
2022/07/03 00:08:57;;;;;;;10.23;1.48;;;;;;;15.99;100.00;98272.28;5081867;28;20063;-94
2022/07/03 00:11:23;;;;;;;7.95;1.20;;;;;;;16.40;100.00;98273.31;5082446;28;20028;-93
2022/07/03 00:13:50;;;;;;;6.30;1.27;;;;;;;16.50;100.00;98274.66;5087870;28;20020;-93
2022/07/03 00:16:21;;;;;;;7.20;1.48;;;;;;;16.37;100.00;98269.88;5084080;28;20026;-94
2022/07/03 00:18:47;;;;;;;7.05;1.25;;;;;;;16.16;100.00;98268.97;5086401;28;20059;-93
2022/07/03 00:21:19;;;;;;;17.30;1.50;;;;;;;16.02;100.00;98280.03;5089154;28;20063;-93
2022/07/03 00:23:52;;;;;;;9.70;1.50;;;;;;;16.24;100.00;98276.53;5083262;28;20024;-92
2022/07/03 00:26:20;;;;;;;7.35;1.33;;;;;;;15.88;100.00;98274.47;5078021;28;20281;-92
2022/07/03 00:28:50;;;;;;;10.48;1.50;;;;;;;16.00;100.00;98270.47;5088612;28;20039;-92
2022/07/03 00:31:16;;;;;;;7.18;1.50;;;;;;;15.73;100.00;98272.34;5085805;28;20024;-92
2022/07/03 00:33:43;;;;;;;7.35;1.40;;;;;;;15.98;100.00;98269.69;5081661;28;20024;-93
2022/07/03 00:36:09;;;;;;;9.32;1.42;;;;;;;16.01;100.00;98272.22;5081529;28;20059;-93
2022/07/03 00:38:35;;;;;;;6.32;1.30;;;;;;;16.08;100.00;98271.03;5081356;28;20555;-93
2022/07/03 00:41:04;;;;;;;9.00;1.77;;;;;;;15.81;100.00;98270.31;5083388;28;20020;-93
2022/07/03 00:43:29;;;;;;;8.63;1.70;;;;;;;15.56;100.00;98278.25;5085619;28;20028;-92
2022/07/03 00:46:06;;;;;;;8.50;1.55;;;;;;;15.98;100.00;98272.34;5082421;28;20406;-92
2022/07/03 00:48:37;;;;;;;7.28;1.73;;;;;;;15.74;100.00;98268.81;5081124;28;21751;-92
2022/07/03 00:51:06;;;;;;;8.85;1.70;;;;;;;15.83;100.00;98264.09;5081823;28;20036;-92
2022/07/03 00:53:33;;;;;;;7.55;1.35;;;;;;;16.04;100.00;98262.41;5080115;28;20040;-92
2022/07/03 00:56:00;;;;;;;9.18;1.40;;;;;;;15.84;100.00;98264.97;5087796;28;20173;-92
2022/07/03 00:58:27;;;;;;;6.55;1.45;;;;;;;15.92;100.00;98262.91;5078666;28;20091;-93
2022/07/03 01:00:54;;;;;;;5.60;1.35;;;;;;;15.92;100.00;98262.91;5086463;28;20016;-91
2022/07/03 01:03:24;;;;;;;5.78;1.33;;;;;;;16.12;100.00;98266.53;5082106;28;20051;-93
2022/07/03 01:05:52;;;;;;;9.98;1.70;;;;;;;16.09;100.00;98274.53;5081916;28;20115;-91
2022/07/03 01:08:38;;;;;;;9.25;1.60;;;;;;;16.58;100.00;98269.09;5080323;28;20028;-92
2022/07/03 01:11:16;;;;;;;7.88;1.70;;;;;;;16.70;100.00;98274.69;5077699;28;20076;-93
2022/07/03 01:13:54;;;;;;;8.75;1.45;;;;;;;16.81;100.00;98274.25;5103100;27;20032;-93
2022/07/03 01:16:53;;;;;;;12.73;1.50;;;;;;;16.45;100.00;98274.84;5084047;28;20032;-92
2022/07/03 01:19:43;;;;;;;7.40;1.60;;;;;;;16.54;100.00;98273.59;5099395;27;20157;-93
2022/07/03 01:22:31;;;;;;;10.32;1.67;;;;;;;16.08;100.00;98272.81;5096304;27;20044;-93
2022/07/03 01:25:24;;;;;;;8.05;1.50;;;;;;;16.38;100.00;98268.97;5084652;28;20028;-90
2022/07/03 01:28:20;;;;;;;9.45;1.48;;;;;;;16.54;100.00;98274.44;5083230;28;20075;-92
2022/07/03 01:30:52;;;;;;;6.25;1.25;;;;;;;16.53;100.00;98271.88;5085530;28;20633;-92
2022/07/03 01:33:23;;;;;;;8.87;1.53;;;;;;;16.74;100.00;98270.13;5085959;28;20032;-94
2022/07/03 01:36:00;;;;;;;8.52;1.33;;;;;;;16.81;100.00;98265.47;5084826;28;20047;-90
2022/07/03 01:38:32;;;;;;;7.85;1.38;;;;;;;16.76;100.00;98270.06;5087332;28;20114;-92
2022/07/03 01:40:59;;;;;;;8.00;1.45;;;;;;;16.47;100.00;98266.88;5079630;28;20028;-93
2022/07/03 01:43:32;;;;;;;7.68;1.63;;;;;;;16.26;100.00;98263.34;5082598;28;20110;-93
2022/07/03 01:45:59;;;;;;;4.97;1.13;;;;;;;16.62;100.00;98260.97;5085986;28;20050;-91
2022/07/03 01:48:27;;;;;;;8.70;1.35;;;;;;;16.43;100.00;98267.91;5081477;28;20047;-93
2022/07/03 01:50:54;;;;;;;7.13;1.30;;;;;;;16.08;100.00;98263.16;5078215;28;20024;-92
2022/07/03 01:53:22;;;;;;;7.55;1.52;;;;;;;16.43;100.00;98260.88;5080238;28;20123;-91
2022/07/03 01:55:50;;;;;;;7.88;1.40;;;;;;;16.73;100.00;98260.53;5080394;28;20035;-93
2022/07/03 01:58:18;;;;;;;9.20;1.98;;;;;;;16.93;100.00;98254.44;5078576;28;20118;-92
2022/07/03 02:00:49;;;;;;;8.48;1.38;;;;;;;16.58;100.00;98261.19;5083803;28;20036;-91
2022/07/03 02:03:26;;;;;;;8.07;1.48;;;;;;;16.31;100.00;98253.47;5085148;28;20500;-93
2022/07/03 02:06:01;;;;;;;6.70;1.55;;;;;;;17.05;100.00;98259.19;5081517;28;20021;-93
2022/07/03 02:08:50;;;;;;;6.00;1.17;;;;;;;16.96;100.00;98256.09;5083813;28;20029;-92
2022/07/03 02:11:25;;;;;;;7.55;1.50;;;;;;;16.93;100.00;98257.06;5085865;28;20041;-92
2022/07/03 02:14:00;;;;;;;5.05;1.20;;;;;;;17.15;100.00;98259.63;5089073;28;20036;-93
2022/07/03 02:16:26;;;;;;;7.85;1.30;;;;;;;17.04;100.00;98257.47;5086369;28;20044;-91
2022/07/03 02:18:58;;;;;;;7.18;1.20;;;;;;;16.47;100.00;98237.94;5086885;28;20103;-92
2022/07/03 02:21:31;;;;;;;7.93;1.33;;;;;;;16.91;100.00;98243.13;5086217;28;20215;-93
2022/07/03 02:24:14;;;;;;;6.78;1.38;;;;;;;16.41;100.00;98253.94;5089334;28;20055;-93
2022/07/03 02:26:45;;;;;;;6.93;1.17;;;;;;;16.69;100.00;98246.63;5084161;28;20041;-92
2022/07/03 02:29:17;;;;;;;8.02;1.17;;;;;;;16.14;100.00;98244.47;5087678;28;20483;-93
2022/07/03 02:31:58;;;;;;;7.25;1.20;;;;;;;16.56;100.00;98240.16;5088398;28;20036;-92
2022/07/03 02:34:25;;;;;;;10.93;1.40;;;;;;;16.10;100.00;98242.88;5104888;27;20041;-92
2022/07/03 02:36:55;;;;;;;10.30;1.60;;;;;;;15.83;100.00;98239.59;5090247;28;20036;-92
2022/07/03 02:39:31;;;;;;;6.32;1.40;;;;;;;15.87;100.00;98239.41;5088208;28;20103;-91
2022/07/03 02:42:03;;;;;;;8.27;1.25;;;;;;;15.93;100.00;98243.56;5086696;28;20531;-93
2022/07/03 02:44:51;;;;;;;7.78;1.40;;;;;;;15.93;100.00;98238.31;5086259;28;20056;-92
2022/07/03 02:47:27;;;;;;;10.43;1.65;;;;;;;15.83;100.00;98242.22;5090047;28;20110;-92
2022/07/03 02:50:05;;;;;;;9.13;1.58;;;;;;;16.12;100.00;98238.44;5086557;28;20064;-92
2022/07/03 02:52:58;;;;;;;7.07;1.40;;;;;;;15.54;100.00;98244.16;5093119;28;20027;-93
2022/07/03 02:55:44;;;;;;;8.98;1.67;;;;;;;15.80;100.00;98252.88;5087519;28;20047;-92
2022/07/03 02:58:34;;;;;;;5.57;1.10;;;;;;;16.23;100.00;98255.56;5093948;28;20039;-93
2022/07/03 03:01:07;;;;;;;7.72;1.10;;;;;;;16.44;100.00;98257.34;5088517;28;20032;-93
2022/07/03 03:03:33;;;;;;;5.65;1.02;;;;;;;15.70;100.00;98254.94;5084559;28;20074;-93
2022/07/03 03:06:13;;;;;;;6.72;1.35;;;;;;;15.59;100.00;98250.09;5087386;28;20119;-93
2022/07/03 03:08:46;;;;;;;6.53;1.23;;;;;;;16.14;100.00;98256.78;5086160;28;20055;-93
2022/07/03 03:11:29;;;;;;;6.10;1.35;;;;;;;16.38;100.00;98261.06;5087864;28;20035;-93
2022/07/03 03:14:14;;;;;;;7.65;1.30;;;;;;;16.85;100.00;98256.50;5086026;28;20255;-92
2022/07/03 03:16:50;;;;;;;7.57;1.52;;;;;;;16.23;100.00;98256.44;5090063;28;20053;-92
2022/07/03 03:19:24;;;;;;;6.57;1.20;;;;;;;16.51;100.00;98257.94;5084336;28;20024;-91
2022/07/03 03:22:03;;;;;;;8.13;1.30;;;;;;;16.96;100.00;98262.19;5081372;28;20032;-92
2022/07/03 03:24:31;;;;;;;6.57;1.70;;;;;;;16.91;100.00;98258.06;5086557;28;20052;-93
2022/07/03 03:26:58;;;;;;;6.57;1.20;;;;;;;16.84;100.00;98254.78;5088329;28;20027;-92
2022/07/03 03:29:24;;;;;;;5.00;1.20;;;;;;;17.16;100.00;98260.47;5086805;28;20053;-92
2022/07/03 03:31:50;;;;;;;9.32;1.30;;;;;;;17.66;100.00;98257.38;5086137;28;20483;-93
2022/07/03 03:34:17;;;;;;;8.38;1.45;;;;;;;17.17;100.00;98256.94;5085285;28;20020;-92
2022/07/03 03:36:44;;;;;;;6.22;1.20;;;;;;;17.12;100.00;98254.50;5087462;28;20028;-92
2022/07/03 03:39:10;;;;;;;7.43;1.20;;;;;;;16.68;100.00;98247.53;5085388;28;20401;-92
2022/07/03 03:41:36;;;;;;;9.48;1.50;;;;;;;17.26;100.00;98253.91;5087387;28;20054;-92
2022/07/03 03:44:01;;;;;;;8.38;1.13;;;;;;;17.30;100.00;98258.09;5093570;28;20107;-91
2022/07/03 03:46:26;;;;;;;8.88;1.30;;;;;;;17.06;100.00;98250.38;5089913;28;20112;-92
2022/07/03 03:48:52;;;;;;;8.50;1.33;;;;;;;17.12;100.00;98259.78;5095633;28;20077;-92
2022/07/03 03:51:18;;;;;;;6.82;1.42;;;;;;;17.05;100.00;98261.81;5088401;28;20051;-92
2022/07/03 03:53:43;;;;;;;11.10;1.48;;;;;;;15.83;100.00;98248.31;5088358;28;20043;-91
2022/07/03 03:56:16;;;;;;;10.00;1.70;;;;;;;16.15;100.00;98259.34;5087255;28;20040;-91
2022/07/03 03:58:43;;;;;;;7.25;1.40;;;;;;;16.58;100.00;98253.28;5092273;28;20028;-93
2022/07/03 04:01:10;;;;;;;9.85;1.83;;;;;;;16.24;100.00;98258.13;5089503;28;20036;-92
2022/07/03 04:03:37;;;;;;;9.93;1.90;;;;;;;17.58;100.00;98257.72;5090889;28;20031;-92
2022/07/03 04:06:03;;;;;;;8.55;1.52;;;;;;;17.13;100.00;98255.34;5090368;28;20076;-91
2022/07/03 04:08:30;;;;;;;10.35;1.60;;;;;;;17.11;100.00;98263.31;5119927;27;20583;-92
2022/07/03 04:10:56;;;;;;;11.95;1.77;;;;;;;17.21;100.00;98267.25;5091860;28;20190;-91
2022/07/03 04:13:22;;;;;;;10.43;1.77;;;;;;;18.04;100.00;98275.84;5093980;28;20123;-91
2022/07/03 04:15:50;;;;;;;7.60;1.60;;;;;;;17.51;100.00;98272.09;5090882;28;22123;-91
2022/07/03 04:18:16;;;;;;;10.05;1.48;;;;;;;17.78;100.00;98281.47;5094802;28;20030;-92
2022/07/03 04:20:42;;;;;;;7.15;1.58;;;;;;;17.60;100.00;98265.53;5089053;28;20020;-93
2022/07/03 04:23:07;;;;;;;6.95;1.42;;;;;;;17.34;100.00;98278.13;5086894;28;20035;-94
2022/07/03 04:25:33;;;;;;;6.78;1.38;;;;;;;16.28;100.00;98266.75;5088750;28;20577;-92
2022/07/03 04:28:02;;;;;;;8.82;1.65;;;;;;;17.02;100.00;98272.50;5097596;28;20531;-92
2022/07/03 04:30:29;;;;;;;5.78;1.13;;;;;;;17.29;100.00;98280.09;5090575;28;20043;-91
2022/07/03 04:32:54;;;;;;;8.75;1.40;;;;;;;16.95;100.00;98272.81;5085946;28;20100;-93
2022/07/03 04:35:26;;;;;;;8.30;1.60;;;;;;;17.01;100.00;98278.69;5089434;28;20159;-92
2022/07/03 04:37:51;;;;;;;10.88;1.60;;;;;;;17.13;100.00;98276.44;5089385;28;20024;-91
2022/07/03 04:40:17;;;;;;;9.98;1.75;;;;;;;17.31;100.00;98278.25;5091790;28;20032;-93
2022/07/03 04:42:43;;;;;;;9.95;1.95;;;;;;;16.69;100.00;98277.38;5089543;28;20039;-93
2022/07/03 04:45:08;;;;;;;8.18;2.15;;;;;;;17.13;100.00;98273.78;5089475;28;20400;-92
2022/07/03 04:47:34;;;;;;;8.75;2.20;;;;;;;16.91;100.00;98274.75;5087527;28;20040;-93
2022/07/03 04:50:00;;;;;;;9.13;2.30;;;;;;;17.26;100.00;98276.75;5091058;28;20069;-92
2022/07/03 04:52:25;;;;;;;9.18;2.15;;;;;;;16.87;100.00;98275.75;5086622;28;20570;-92
2022/07/03 04:54:53;;;;;;;8.38;2.20;;;;;;;17.34;100.00;98285.16;5087917;28;20047;-91
2022/07/03 04:57:18;;;;;;;8.50;1.90;;;;;;;17.74;100.00;98284.25;5093070;28;20036;-92
2022/07/03 04:59:46;;;;;;;8.77;2.40;;;;;;;17.20;100.00;98278.75;5086450;28;20035;-93
2022/07/03 05:02:12;;;;;;;8.85;2.70;;;;;;;17.50;100.00;98290.63;5096124;28;20028;-93
2022/07/03 05:04:37;;;;;;;10.18;2.05;;;;;;;17.70;100.00;98298.50;5084275;28;20036;-92
2022/07/03 05:07:03;;;;;;;8.45;2.30;;;;;;;17.39;100.00;98302.50;5088943;28;20031;-93
2022/07/03 05:09:29;;;;;;;7.95;2.08;;;;;;;17.53;100.00;98295.75;5087681;28;20033;-93
2022/07/03 05:11:54;;;;;;;8.98;2.17;;;;;;;17.32;100.00;98298.41;5088002;28;20100;-92
2022/07/03 05:14:20;;;;;;;9.05;1.90;;;;;;;17.30;100.00;98308.19;5087334;28;20020;-92
2022/07/03 05:16:45;;;;;;;8.65;1.65;;;;;;;17.54;100.00;98303.59;5086492;28;20043;-92
2022/07/03 05:19:12;;;;;;;8.30;1.50;;;;;;;17.65;100.00;98297.84;5089315;28;20028;-92
2022/07/03 05:21:39;;;;;;;7.80;1.60;;;;;;;17.51;100.00;98292.34;5086184;28;20028;-92
2022/07/03 05:24:05;;;;;;;6.90;1.58;;;;;;;17.83;100.00;98300.56;5084845;28;20016;-92
2022/07/03 05:26:33;;;;;;;9.00;1.95;;;;;;;16.89;100.00;98300.28;5084858;28;20028;-91
2022/07/03 05:28:58;;;;;;;9.23;1.65;;;;;;;17.18;100.00;98299.03;5088742;28;20028;-93
2022/07/03 05:31:24;;;;;;;7.32;1.55;;;;;;;17.37;100.00;98298.25;5089449;28;20047;-93
2022/07/03 05:33:49;;;;;;;8.38;1.38;;;;;;;16.85;100.00;98296.91;5088252;28;20454;-93
2022/07/03 05:36:16;;;;;;;7.88;1.40;;;;;;;16.83;100.00;98303.13;5089407;28;20080;-93
2022/07/03 05:41:25;;;;;;;10.40;1.67;;;;;;;17.07;100.00;98301.25;5089335;28;20134;-93
2022/07/03 05:43:51;;;;;;;8.18;1.48;;;;;;;17.34;100.00;98304.50;5085726;28;20028;-94
2022/07/03 05:46:16;;;;;;;7.15;1.35;;;;;;;17.16;100.00;98310.53;5090662;28;20104;-93
2022/07/03 05:48:42;;;;;;;6.35;1.52;;;;;;;16.86;100.00;98313.53;5086890;28;20038;-93
2022/07/03 05:51:07;;;;;;;7.07;1.50;;;;;;;17.25;100.00;98317.22;5088578;28;20023;-92
2022/07/03 05:53:33;;;;;;;7.10;1.42;;;;;;;17.61;100.00;98332.34;5088811;28;20705;-93
2022/07/03 05:55:58;;;;;;;8.85;1.42;;;;;;;17.75;100.00;98325.50;5091452;28;20059;-94
2022/07/03 05:58:30;;;;;;;6.75;1.52;;;;;;;17.64;100.00;98332.19;5085855;28;20036;-93
2022/07/03 06:00:56;;;;;;;9.00;2.22;;;;;;;17.51;100.00;98331.91;5086423;28;20028;-93
2022/07/03 06:03:21;;;;;;;7.07;1.60;;;;;;;17.45;100.00;98334.78;5087082;28;20818;-94
2022/07/03 06:05:47;;;;;;;10.65;2.38;;;;;;;17.37;100.00;98335.13;5092352;28;20506;-92
2022/07/03 06:08:12;;;;;;;9.82;2.53;;;;;;;18.05;100.00;98340.91;5083252;28;20032;-94
2022/07/03 06:10:38;;;;;;;10.77;2.85;;;;;;;17.57;100.00;98344.78;5087661;28;20090;-93
2022/07/03 06:13:03;;;;;;;12.73;3.30;;;;;;;17.91;100.00;98330.09;5087623;28;20028;-94
2022/07/03 06:15:29;;;;;;;9.95;2.85;;;;;;;19.19;100.00;98342.50;5083958;28;20032;-93
2022/07/03 06:17:55;;;;;;;14.77;4.47;;;;;;;18.10;100.00;98334.56;5088772;28;20035;-93
2022/07/03 06:20:20;;;;;;;18.85;5.35;;;;;;;17.82;100.00;98334.00;5089504;28;20063;-93
2022/07/03 06:22:46;;;;;;;12.48;4.35;;;;;;;19.04;100.00;98338.81;5087075;28;20051;-93
2022/07/03 06:25:12;;;;;;;15.80;4.63;;;;;;;18.90;100.00;98341.28;5084494;28;20038;-94
2022/07/03 06:27:38;;;;;;;21.67;9.13;;;;;;;18.21;100.00;98337.53;5086760;28;20076;-94
2022/07/03 06:30:04;;;;;;;18.48;8.35;;;;;;;17.93;100.00;98346.75;5090554;28;20031;-95
2022/07/03 06:32:29;;;;;;;25.45;7.85;;;;;;;18.47;100.00;98341.59;5090579;28;20035;-93
2022/07/03 06:34:55;;;;;;;20.48;7.15;;;;;;;18.69;100.00;98343.16;5085911;28;20188;-92
2022/07/03 06:37:21;;;;;;;16.23;6.97;;;;;;;18.58;100.00;98341.06;5086854;28;20667;-93
2022/07/03 06:39:47;;;;;;;15.63;6.35;;;;;;;19.04;100.00;98346.75;5083738;28;20064;-94
2022/07/03 06:42:13;;;;;;;16.08;6.80;;;;;;;18.15;100.00;98345.72;5086244;28;20476;-93
2022/07/03 06:44:41;;;;;;;19.98;8.73;;;;;;;18.16;100.00;98348.31;5089378;28;20066;-93
2022/07/03 06:47:07;;;;;;;20.17;7.47;;;;;;;18.30;100.00;98339.75;5088787;28;20031;-94
2022/07/03 06:49:33;;;;;;;15.40;7.45;;;;;;;18.39;100.00;98349.03;5086552;28;20024;-94
2022/07/03 06:52:01;;;;;;;19.50;9.40;;;;;;;17.69;100.00;98341.63;5089114;28;20024;-93
2022/07/03 06:54:26;;;;;;;21.33;9.73;;;;;;;17.97;100.00;98343.03;5083298;28;20097;-93
2022/07/03 06:56:52;;;;;;;18.92;7.80;;;;;;;18.46;100.00;98339.88;5087475;28;20024;-92
2022/07/03 06:59:17;;;;;;;19.27;8.25;;;;;;;18.32;100.00;98351.09;5086665;28;20372;-93
2022/07/03 07:01:43;;;;;;;17.77;7.78;;;;;;;18.58;100.00;98347.22;5087767;28;20497;-93
2022/07/03 07:04:09;;;;;;;19.08;8.23;;;;;;;18.33;100.00;98351.94;5085684;28;20046;-94
2022/07/03 07:06:35;;;;;;;22.00;9.07;;;;;;;18.06;100.00;98353.19;5085216;28;20020;-96
2022/07/03 07:09:00;;;;;;;26.20;11.27;;;;;;;17.73;100.00;98343.19;5084039;28;20035;-93
2022/07/03 07:11:27;;;;;;;27.70;12.60;;;;;;;18.21;100.00;98354.22;5086472;28;20036;-94
2022/07/03 07:13:55;;;;;;;27.15;12.88;;;;;;;18.63;100.00;98348.78;5087326;28;20028;-93
2022/07/03 07:16:21;;;;;;;27.58;12.02;;;;;;;18.41;100.00;98353.31;5086500;28;20039;-94
2022/07/03 07:18:47;;;;;;;27.40;12.38;;;;;;;18.47;100.00;98352.16;4986969;28;20475;-93
2022/07/03 07:21:16;;;;;;;22.70;12.13;;;;;;;18.46;100.00;98353.06;4999598;28;20040;-96
2022/07/03 07:23:41;;;;;;;21.90;10.98;;;;;;;18.54;100.00;98350.91;5033333;28;20391;-92
2022/07/03 07:26:07;;;;;;;21.35;9.77;;;;;;;18.38;100.00;98352.56;4990972;28;20045;-92
2022/07/03 07:28:34;;;;;;;18.10;10.52;;;;;;;19.01;100.00;98351.31;5032396;28;20567;-92
2022/07/03 07:31:07;;;;;;;16.73;8.57;;;;;;;18.88;100.00;98349.28;5033933;28;20055;-93
2022/07/03 07:33:33;;;;;;;14.68;7.57;;;;;;;19.18;100.00;98363.69;5032364;28;20796;-94
2022/07/03 07:35:59;;;;;;;14.77;6.68;;;;;;;18.34;100.00;98359.78;5033110;28;20029;-93
2022/07/03 07:38:25;;;;;;;14.10;4.97;;;;;;;18.74;100.00;98359.66;5065190;28;20037;-93
2022/07/03 07:40:51;;;;;;;11.82;4.35;;;;;;;18.66;100.00;98361.81;5063245;28;20052;-94
2022/07/03 07:43:16;;;;;;;9.68;3.75;;;;;;;18.95;100.00;98359.56;5066770;28;20025;-94
2022/07/03 07:45:43;;;;;;;10.10;3.63;;;;;;;19.17;100.00;98364.63;5033931;28;20579;-93
2022/07/03 07:48:11;;;;;;;9.32;3.42;;;;;;;19.34;100.00;98369.06;5029989;28;20033;-93
2022/07/03 07:50:37;;;;;;;8.80;2.90;;;;;;;19.54;100.00;98363.59;5028285;28;20076;-95
2022/07/03 07:53:15;;;;;;;6.50;2.75;;;;;;;18.75;100.00;98359.59;5063077;28;20061;-95
2022/07/03 07:55:41;;;;;;;9.73;2.67;;;;;;;19.38;100.00;98365.34;5029020;28;20069;-94
2022/07/03 07:58:08;;;;;;;7.97;2.83;;;;;;;18.47;100.00;98356.56;5061325;28;20076;-93
2022/07/03 08:00:36;;;;;;;10.10;3.47;;;;;;;18.39;100.00;98355.16;5029600;28;20025;-94
2022/07/03 08:05:46;;;;;;;9.65;3.10;;;;;;;18.88;100.00;98361.66;5029233;28;20033;-93
2022/07/03 08:08:16;;;;;;;7.82;2.85;;;;;;;19.36;100.00;98357.47;5028489;28;20037;-93
2022/07/03 08:10:52;;;;;;;8.55;3.08;;;;;;;20.31;100.00;98360.47;5026269;28;20091;-94
2022/07/03 08:13:20;;;;;;;7.25;2.45;;;;;;;20.35;100.00;98367.28;5060204;28;20039;-94
2022/07/03 08:15:47;;;;;;;9.52;3.25;;;;;;;20.21;100.00;98366.25;5026657;28;20048;-95
2022/07/03 08:18:14;;;;;;;6.85;2.63;;;;;;;20.63;100.00;98374.56;5030460;28;20048;-94
2022/07/03 08:20:39;;;;;;;7.75;2.60;;;;;;;18.92;100.00;98361.41;5029446;28;20021;-96
2022/07/03 08:23:05;;;;;;;7.75;2.95;;;;;;;19.80;100.00;98377.28;5062072;28;20056;-95
2022/07/03 08:26:18;;;;;;;6.93;2.80;;;;;;;20.48;100.00;98375.41;5033995;28;20029;-95
2022/07/03 08:28:43;;;;;;;6.93;2.70;;;;;;;20.14;100.00;98383.44;5033596;28;20048;-94
2022/07/03 08:31:09;;;;;;;7.53;2.67;;;;;;;20.02;100.00;98387.56;5065624;28;20199;-93
2022/07/03 08:33:34;;;;;;;7.68;2.80;;;;;;;19.89;100.00;98389.19;5063160;28;20025;-93
2022/07/03 08:36:00;;;;;;;8.70;3.00;;;;;;;19.58;100.00;98388.97;5032871;28;20505;-93
2022/07/03 08:38:31;;;;;;;8.48;2.75;;;;;;;20.29;100.00;98387.00;5033412;28;20044;-93
2022/07/03 08:40:59;;;;;;;7.32;2.42;;;;;;;20.20;100.00;98396.31;4981543;28;20041;-94
2022/07/03 08:43:24;;;;;;;9.48;3.00;;;;;;;20.01;100.00;98393.78;5032669;28;20025;-93
2022/07/03 08:45:50;;;;;;;7.18;2.60;;;;;;;19.93;100.00;98396.00;5066216;28;20038;-93
2022/07/03 08:48:18;;;;;;;8.45;2.53;;;;;;;21.19;100.00;98392.63;5032682;28;20021;-93
2022/07/03 08:50:46;;;;;;;7.57;2.20;;;;;;;20.29;100.00;98403.78;5064505;28;20033;-94
2022/07/03 08:53:12;;;;;;;6.55;2.20;;;;;;;20.92;100.00;98395.94;5065179;28;20052;-94
2022/07/03 08:55:38;;;;;;;7.45;1.85;;;;;;;21.37;100.00;98403.94;5031383;28;20041;-93
2022/07/03 08:58:05;;;;;;;8.35;2.20;;;;;;;20.97;100.00;98401.81;5032484;28;20037;-94
2022/07/03 09:00:32;;;;;;;8.15;2.30;;;;;;;21.63;100.00;98416.53;5065345;28;20045;-94
2022/07/03 09:03:00;;;;;;;6.38;2.20;;;;;;;20.68;100.00;98420.25;5032562;28;20033;-94
2022/07/03 09:05:28;;;;;;;7.95;2.17;;;;;;;20.79;100.00;98409.88;5031403;28;20040;-93
2022/07/03 09:07:56;;;;;;;8.55;2.03;;;;;;;20.21;100.00;98413.03;5032960;28;20029;-94
2022/07/03 09:10:22;;;;;;;8.20;2.08;;;;;;;20.71;100.00;98412.09;5029065;28;20025;-90
2022/07/03 09:12:48;;;;;;;8.25;1.95;;;;;;;20.06;100.00;98426.19;5033273;28;20025;-94
2022/07/03 09:15:15;;;;;;;7.07;2.10;;;;;;;20.12;100.00;98425.88;5034351;28;20033;-91
2022/07/03 09:18:04;;;;;;;6.88;2.15;;;;;;;19.43;100.00;98432.06;5034123;28;20026;-93
2022/07/03 09:20:35;;;;;;;7.35;2.20;;;;;;;19.18;100.00;98421.84;5032148;28;20026;-94
2022/07/03 09:23:19;;;;;;;6.95;1.98;;;;;;;19.46;100.00;98437.19;5033527;28;20052;-93
2022/07/03 09:25:55;;;;;;;6.88;2.00;;;;;;;20.35;100.00;98434.34;5031821;28;20017;-92
2022/07/03 09:28:46;;;;;;;9.30;2.30;;;;;;;20.92;100.00;98436.53;5033581;28;20033;-93
2022/07/03 09:31:13;;;;;;;8.52;1.92;;;;;;;20.29;100.00;98429.38;5032040;28;20025;-95
2022/07/03 09:34:05;;;;;;;7.72;2.00;;;;;;;20.34;100.00;98437.09;5032057;28;20033;-94
2022/07/03 09:36:43;;;;;;;5.90;2.10;;;;;;;20.51;100.00;98430.88;5031331;28;20025;-93
2022/07/03 09:39:36;;;;;;;8.20;1.60;;;;;;;21.16;100.00;98443.19;5029880;28;20022;-93
2022/07/03 09:42:05;;;;;;;5.70;1.50;;;;;;;20.31;100.00;98442.56;5062111;28;20751;-94
2022/07/03 09:44:35;;;;;;;6.07;1.55;;;;;;;19.86;100.00;98431.66;5026416;28;20465;-94
2022/07/03 09:47:07;;;;;;;5.47;1.52;;;;;;;20.61;100.00;98456.78;5045037;28;20051;-92
2022/07/03 09:49:54;;;;;;;5.25;1.50;;;;;;;21.19;100.00;98437.69;5063703;28;20041;-93
2022/07/03 09:52:37;;;;;;;4.90;1.50;;;;;;;21.95;100.00;98450.06;5033231;28;20069;-95
2022/07/03 09:55:06;;;;;;;7.35;1.60;;;;;;;22.38;100.00;98454.53;5064144;28;20057;-94
2022/07/03 09:57:31;;;;;;;6.13;1.40;;;;;;;21.94;100.00;98451.00;5030362;28;20560;-93
2022/07/03 10:00:10;;;;;;;3.75;1.13;;;;;;;22.65;100.00;98451.97;5057655;28;20032;-93
2022/07/03 10:02:50;;;;;;;7.35;1.55;;;;;;;21.04;100.00;98447.38;5062174;28;20049;-94
2022/07/03 10:05:16;;;;;;;6.75;1.38;;;;;;;20.86;100.00;98439.53;5029270;28;20022;-94
2022/07/03 10:07:58;;;;;;;6.75;1.30;;;;;;;20.85;100.00;98453.72;5033851;28;20103;-93
2022/07/03 10:10:26;;;;;;;6.55;1.42;;;;;;;20.71;100.00;98458.94;5029491;28;20053;-93
2022/07/03 10:12:53;;;;;;;5.93;1.25;;;;;;;20.67;100.00;98467.97;5027716;28;20026;-94
2022/07/03 10:15:20;;;;;;;4.13;1.00;;;;;;;20.13;100.00;98463.78;5028777;28;20053;-92
2022/07/03 10:17:53;;;;;;;5.05;1.35;;;;;;;20.55;100.00;98469.50;5027186;28;20032;-93
2022/07/03 10:20:28;;;;;;;3.97;1.00;;;;;;;21.11;100.00;98469.94;5057535;28;20033;-92
2022/07/03 10:22:55;;;;;;;5.00;1.25;;;;;;;21.19;100.00;98467.72;5027099;28;20481;-93
2022/07/03 10:25:21;;;;;;;3.47;0.98;;;;;;;21.42;100.00;98471.72;5062476;28;20033;-91
2022/07/03 10:27:49;;;;;;;3.15;0.90;;;;;;;20.99;100.00;98471.50;5063127;28;20030;-93
2022/07/03 10:30:18;;;;;;;4.68;1.00;;;;;;;20.93;100.00;98478.03;5042455;28;20025;-93
2022/07/03 10:32:46;;;;;;;6.15;1.13;;;;;;;20.77;100.00;98483.31;5028287;28;20040;-94
2022/07/03 10:35:21;;;;;;;6.80;1.38;;;;;;;20.91;100.00;98484.34;5061682;28;20026;-94
2022/07/03 10:38:02;;;;;;;4.85;1.23;;;;;;;21.17;100.00;98487.31;5029747;28;20029;-94
2022/07/03 10:46:25;;;;;;;6.43;1.30;;;;;;;21.44;100.00;98475.09;5032854;28;20159;-94
2022/07/03 10:48:52;;;;;;;6.80;1.50;;;;;;;21.78;100.00;98483.78;5064044;28;20040;-94
2022/07/03 10:51:17;;;;;;;5.07;1.42;;;;;;;21.61;100.00;98478.59;5029083;28;20389;-94
2022/07/03 10:53:43;;;;;;;7.32;1.40;;;;;;;22.12;100.00;98479.09;5030461;28;20030;-95
2022/07/03 10:56:08;;;;;;;6.82;1.48;;;;;;;21.53;100.00;98483.50;5065069;28;20053;-94
2022/07/03 10:58:57;;;;;;;5.13;1.30;;;;;;;21.56;100.00;98483.31;5034011;28;20029;-95
2022/07/03 11:01:30;;;;;;;4.60;1.30;;;;;;;21.71;100.00;98482.44;5031062;28;20068;-95
2022/07/03 11:04:01;;;;;;;5.30;1.27;;;;;;;21.67;100.00;98480.03;5062865;28;20044;-95
2022/07/03 11:06:48;;;;;;;4.07;1.27;;;;;;;21.80;100.00;98487.19;5028758;28;20393;-95
2022/07/03 11:09:17;;;;;;;6.35;1.20;;;;;;;20.78;100.00;98481.53;5065541;28;20021;-94
2022/07/03 11:11:57;;;;;;;4.90;1.30;;;;;;;21.23;100.00;98492.28;5059413;28;20029;-95
2022/07/03 11:14:27;;;;;;;6.13;1.48;;;;;;;21.75;100.00;98491.06;5030250;28;20041;-96
2022/07/03 11:17:18;;;;;;;11.23;1.40;;;;;;;21.72;100.00;98488.59;5026528;28;20087;-95
2022/07/03 11:20:23;;;;;;;5.75;1.60;;;;;;;21.97;100.00;98504.75;5067840;23;21400;-92
2022/07/03 11:22:59;;;;;;;6.00;1.33;;;;;;;22.38;100.00;98495.28;5007819;28;20128;-93
2022/07/03 11:25:42;;;;;;;3.78;1.10;;;;;;;21.28;100.00;98493.72;5001292;28;20068;-92
2022/07/03 11:28:07;;;;;;;5.82;1.40;;;;;;;21.58;100.00;98484.09;5002939;28;20041;-92
2022/07/03 11:30:33;;;;;;;5.78;1.45;;;;;;;23.16;100.00;98496.63;5005934;28;20030;-93
2022/07/03 11:33:00;;;;;;;5.97;1.30;;;;;;;22.14;100.00;98498.44;5001419;28;20029;-94
2022/07/03 11:35:46;;;;;;;6.72;1.50;;;;;;;23.10;100.00;98499.63;5002128;28;20123;-94
2022/07/03 11:38:16;;;;;;;5.63;1.30;;;;;;;23.14;100.00;98504.66;5018793;28;20037;-93
2022/07/03 11:40:47;;;;;;;5.13;1.02;;;;;;;24.50;100.00;98508.06;5006334;28;20084;-94
2022/07/03 11:43:13;;;;;;;7.60;1.30;;;;;;;24.19;100.00;98505.72;5006634;28;20060;-94
2022/07/03 11:45:40;;;;;;;5.07;1.20;;;;;;;22.93;100.00;98511.34;5006589;28;20093;-95
2022/07/03 11:48:12;;;;;;;4.85;1.17;;;;;;;23.58;100.00;98507.19;5007717;28;21031;-93
2022/07/03 11:50:43;;;;;;;4.25;1.10;;;;;;;24.37;96.84;98521.41;5007555;28;20097;-93